sensor_id;sensor_type;location;lat;lon;timestamp;temperature;humidity
15959;DHT22;8078;47.822;9.402;2023-06-05T00:00:38;13.70;62.80
15959;DHT22;8078;47.822;9.402;2023-06-05T00:03:03;13.80;66.30
15959;DHT22;8078;47.822;9.402;2023-06-05T00:05:29;13.80;67.90
15959;DHT22;8078;47.822;9.402;2023-06-05T00:07:55;13.80;67.40
15959;DHT22;8078;47.822;9.402;2023-06-05T00:10:20;13.70;69.20
15959;DHT22;8078;47.822;9.402;2023-06-05T00:12:46;13.60;68.20
15959;DHT22;8078;47.822;9.402;2023-06-05T00:15:12;13.60;62.00
15959;DHT22;8078;47.822;9.402;2023-06-05T00:17:37;13.60;65.60
15959;DHT22;8078;47.822;9.402;2023-06-05T00:20:03;13.50;58.50
15959;DHT22;8078;47.822;9.402;2023-06-05T00:22:31;13.40;60.70
15959;DHT22;8078;47.822;9.402;2023-06-05T00:24:57;13.50;63.20
15959;DHT22;8078;47.822;9.402;2023-06-05T00:27:23;13.40;60.40
15959;DHT22;8078;47.822;9.402;2023-06-05T00:29:49;13.30;62.60
15959;DHT22;8078;47.822;9.402;2023-06-05T00:32:15;13.30;60.10
15959;DHT22;8078;47.822;9.402;2023-06-05T00:34:40;13.20;68.90
15959;DHT22;8078;47.822;9.402;2023-06-05T00:37:06;13.10;57.60
15959;DHT22;8078;47.822;9.402;2023-06-05T00:39:32;13.00;57.00
15959;DHT22;8078;47.822;9.402;2023-06-05T00:41:58;13.00;49.50
15959;DHT22;8078;47.822;9.402;2023-06-05T00:44:23;13.40;58.60
15959;DHT22;8078;47.822;9.402;2023-06-05T00:46:51;13.50;65.20
15959;DHT22;8078;47.822;9.402;2023-06-05T00:49:18;13.60;69.60
15959;DHT22;8078;47.822;9.402;2023-06-05T00:51:45;13.70;83.10
15959;DHT22;8078;47.822;9.402;2023-06-05T00:54:12;13.90;73.60
15959;DHT22;8078;47.822;9.402;2023-06-05T00:56:40;13.90;72.20
15959;DHT22;8078;47.822;9.402;2023-06-05T00:59:07;13.80;69.70
15959;DHT22;8078;47.822;9.402;2023-06-05T01:01:32;14.00;76.30
15959;DHT22;8078;47.822;9.402;2023-06-05T01:04:02;14.00;78.10
15959;DHT22;8078;47.822;9.402;2023-06-05T01:06:29;14.10;80.70
15959;DHT22;8078;47.822;9.402;2023-06-05T01:08:56;14.00;78.60
15959;DHT22;8078;47.822;9.402;2023-06-05T01:11:50;14.00;79.10
15959;DHT22;8078;47.822;9.402;2023-06-05T01:14:24;14.10;82.30
15959;DHT22;8078;47.822;9.402;2023-06-05T01:16:54;14.00;78.40
15959;DHT22;8078;47.822;9.402;2023-06-05T01:19:20;13.90;71.80
15959;DHT22;8078;47.822;9.402;2023-06-05T01:21:49;13.90;69.30
15959;DHT22;8078;47.822;9.402;2023-06-05T01:24:15;13.90;72.20
15959;DHT22;8078;47.822;9.402;2023-06-05T01:26:57;13.90;70.40
15959;DHT22;8078;47.822;9.402;2023-06-05T01:32:04;13.90;72.70
15959;DHT22;8078;47.822;9.402;2023-06-05T01:34:32;13.90;77.60
15959;DHT22;8078;47.822;9.402;2023-06-05T01:36:58;13.90;68.60
15959;DHT22;8078;47.822;9.402;2023-06-05T01:39:25;13.80;74.70
15959;DHT22;8078;47.822;9.402;2023-06-05T01:41:53;13.80;73.60
15959;DHT22;8078;47.822;9.402;2023-06-05T01:44:19;13.80;68.90
15959;DHT22;8078;47.822;9.402;2023-06-05T01:46:45;13.60;65.50
15959;DHT22;8078;47.822;9.402;2023-06-05T01:49:11;13.50;60.00
15959;DHT22;8078;47.822;9.402;2023-06-05T01:51:37;13.40;58.60
15959;DHT22;8078;47.822;9.402;2023-06-05T01:54:02;13.30;61.50
15959;DHT22;8078;47.822;9.402;2023-06-05T01:56:28;13.30;64.30
15959;DHT22;8078;47.822;9.402;2023-06-05T01:58:55;13.30;57.10
15959;DHT22;8078;47.822;9.402;2023-06-05T02:01:21;13.30;54.20
15959;DHT22;8078;47.822;9.402;2023-06-05T02:03:49;13.10;50.60
15959;DHT22;8078;47.822;9.402;2023-06-05T02:06:15;13.00;46.20
15959;DHT22;8078;47.822;9.402;2023-06-05T02:08:42;13.00;47.30
15959;DHT22;8078;47.822;9.402;2023-06-05T02:11:08;13.00;47.10
15959;DHT22;8078;47.822;9.402;2023-06-05T02:13:38;13.20;49.00
15959;DHT22;8078;47.822;9.402;2023-06-05T02:16:05;13.20;49.80
15959;DHT22;8078;47.822;9.402;2023-06-05T02:18:30;13.10;44.20
15959;DHT22;8078;47.822;9.402;2023-06-05T02:20:56;13.10;43.90
15959;DHT22;8078;47.822;9.402;2023-06-05T02:23:22;13.10;51.10
15959;DHT22;8078;47.822;9.402;2023-06-05T02:25:48;13.20;48.70
15959;DHT22;8078;47.822;9.402;2023-06-05T02:28:14;13.10;54.00
15959;DHT22;8078;47.822;9.402;2023-06-05T02:30:41;13.00;50.40
15959;DHT22;8078;47.822;9.402;2023-06-05T02:33:10;13.10;48.70
15959;DHT22;8078;47.822;9.402;2023-06-05T02:35:36;13.00;47.40
15959;DHT22;8078;47.822;9.402;2023-06-05T02:38:02;13.00;48.70
15959;DHT22;8078;47.822;9.402;2023-06-05T02:40:31;13.00;46.20
15959;DHT22;8078;47.822;9.402;2023-06-05T02:42:56;12.80;44.00
15959;DHT22;8078;47.822;9.402;2023-06-05T02:45:22;12.90;50.90
15959;DHT22;8078;47.822;9.402;2023-06-05T02:47:50;12.80;41.70
15959;DHT22;8078;47.822;9.402;2023-06-05T02:50:16;12.80;40.60
15959;DHT22;8078;47.822;9.402;2023-06-05T02:52:42;12.60;40.70
15959;DHT22;8078;47.822;9.402;2023-06-05T02:55:07;12.60;50.90
15959;DHT22;8078;47.822;9.402;2023-06-05T02:57:33;12.40;44.10
15959;DHT22;8078;47.822;9.402;2023-06-05T03:00:10;12.40;37.40
15959;DHT22;8078;47.822;9.402;2023-06-05T03:02:43;12.30;44.10
15959;DHT22;8078;47.822;9.402;2023-06-05T03:05:16;12.30;33.30
15959;DHT22;8078;47.822;9.402;2023-06-05T03:07:50;12.20;32.80
15959;DHT22;8078;47.822;9.402;2023-06-05T03:10:18;12.20;28.50
15959;DHT22;8078;47.822;9.402;2023-06-05T03:12:44;12.10;26.40
15959;DHT22;8078;47.822;9.402;2023-06-05T03:15:10;12.10;30.90
15959;DHT22;8078;47.822;9.402;2023-06-05T03:17:37;12.20;33.30
15959;DHT22;8078;47.822;9.402;2023-06-05T03:20:02;12.30;30.40
15959;DHT22;8078;47.822;9.402;2023-06-05T03:22:29;12.20;29.30
15959;DHT22;8078;47.822;9.402;2023-06-05T03:24:55;12.20;99.90
15959;DHT22;8078;47.822;9.402;2023-06-05T03:27:21;12.10;23.90
15959;DHT22;8078;47.822;9.402;2023-06-05T03:29:46;12.00;23.30
15959;DHT22;8078;47.822;9.402;2023-06-05T03:32:12;11.90;36.20
15959;DHT22;8078;47.822;9.402;2023-06-05T03:34:38;12.00;26.50
15959;DHT22;8078;47.822;9.402;2023-06-05T03:37:04;11.90;27.30
15959;DHT22;8078;47.822;9.402;2023-06-05T03:39:29;11.90;25.60
15959;DHT22;8078;47.822;9.402;2023-06-05T03:41:55;11.80;24.30
15959;DHT22;8078;47.822;9.402;2023-06-05T03:44:20;11.90;26.50
15959;DHT22;8078;47.822;9.402;2023-06-05T03:46:48;11.90;33.90
15959;DHT22;8078;47.822;9.402;2023-06-05T03:49:13;12.10;29.40
15959;DHT22;8078;47.822;9.402;2023-06-05T03:51:39;11.90;26.20
15959;DHT22;8078;47.822;9.402;2023-06-05T03:54:05;11.80;26.40
15959;DHT22;8078;47.822;9.402;2023-06-05T03:56:31;11.80;25.10
15959;DHT22;8078;47.822;9.402;2023-06-05T03:59:00;11.90;31.60
15959;DHT22;8078;47.822;9.402;2023-06-05T04:01:44;11.90;26.70
15959;DHT22;8078;47.822;9.402;2023-06-05T04:04:10;12.00;26.50
15959;DHT22;8078;47.822;9.402;2023-06-05T04:06:36;11.90;57.00
15959;DHT22;8078;47.822;9.402;2023-06-05T04:09:06;11.90;99.90
15959;DHT22;8078;47.822;9.402;2023-06-05T04:11:38;11.90;99.90
15959;DHT22;8078;47.822;9.402;2023-06-05T04:14:04;11.80;93.70
15959;DHT22;8078;47.822;9.402;2023-06-05T04:16:30;11.90;90.40
15959;DHT22;8078;47.822;9.402;2023-06-05T04:18:56;12.00;51.60
15959;DHT22;8078;47.822;9.402;2023-06-05T04:21:21;12.00;79.80
15959;DHT22;8078;47.822;9.402;2023-06-05T04:23:47;12.00;99.90
15959;DHT22;8078;47.822;9.402;2023-06-05T04:26:12;12.00;26.60
15959;DHT22;8078;47.822;9.402;2023-06-05T04:28:42;12.00;30.90
15959;DHT22;8078;47.822;9.402;2023-06-05T04:31:09;12.10;31.50
15959;DHT22;8078;47.822;9.402;2023-06-05T04:33:35;12.20;32.00
15959;DHT22;8078;47.822;9.402;2023-06-05T04:36:00;12.20;32.50
15959;DHT22;8078;47.822;9.402;2023-06-05T04:38:26;12.30;39.60
15959;DHT22;8078;47.822;9.402;2023-06-05T04:40:53;12.40;41.80
15959;DHT22;8078;47.822;9.402;2023-06-05T04:43:19;12.50;45.30
15959;DHT22;8078;47.822;9.402;2023-06-05T04:45:44;12.60;46.70
15959;DHT22;8078;47.822;9.402;2023-06-05T04:48:12;12.70;49.60
15959;DHT22;8078;47.822;9.402;2023-06-05T04:50:38;12.80;53.10
15959;DHT22;8078;47.822;9.402;2023-06-05T04:53:04;12.80;99.90
15959;DHT22;8078;47.822;9.402;2023-06-05T04:55:29;12.90;57.90
15959;DHT22;8078;47.822;9.402;2023-06-05T04:57:55;13.10;62.30
15959;DHT22;8078;47.822;9.402;2023-06-05T05:00:26;13.20;67.30
15959;DHT22;8078;47.822;9.402;2023-06-05T05:02:52;13.30;69.60
15959;DHT22;8078;47.822;9.402;2023-06-05T05:05:19;13.40;79.40
15959;DHT22;8078;47.822;9.402;2023-06-05T05:07:45;13.40;79.50
15959;DHT22;8078;47.822;9.402;2023-06-05T05:10:11;13.50;77.50
15959;DHT22;8078;47.822;9.402;2023-06-05T05:12:37;13.60;85.30
15959;DHT22;8078;47.822;9.402;2023-06-05T05:15:04;13.70;85.60
15959;DHT22;8078;47.822;9.402;2023-06-05T05:17:30;13.80;91.60
15959;DHT22;8078;47.822;9.402;2023-06-05T05:19:56;13.80;92.40
15959;DHT22;8078;47.822;9.402;2023-06-05T05:22:22;13.90;93.20
15959;DHT22;8078;47.822;9.402;2023-06-05T05:24:48;13.90;92.60
15959;DHT22;8078;47.822;9.402;2023-06-05T05:27:13;14.00;94.80
15959;DHT22;8078;47.822;9.402;2023-06-05T05:29:39;14.10;96.00
15959;DHT22;8078;47.822;9.402;2023-06-05T05:32:05;14.10;95.90
15959;DHT22;8078;47.822;9.402;2023-06-05T05:34:31;14.00;97.50
15959;DHT22;8078;47.822;9.402;2023-06-05T05:36:56;13.90;93.90
15959;DHT22;8078;47.822;9.402;2023-06-05T05:39:22;13.90;93.30
15959;DHT22;8078;47.822;9.402;2023-06-05T05:41:48;13.80;93.40
15959;DHT22;8078;47.822;9.402;2023-06-05T05:44:13;13.80;90.70
15959;DHT22;8078;47.822;9.402;2023-06-05T05:46:39;13.80;99.90
15959;DHT22;8078;47.822;9.402;2023-06-05T05:49:04;13.80;99.90
15959;DHT22;8078;47.822;9.402;2023-06-05T05:51:30;13.80;99.90
15959;DHT22;8078;47.822;9.402;2023-06-05T05:53:56;13.90;91.50
15959;DHT22;8078;47.822;9.402;2023-06-05T05:56:21;14.10;94.30
15959;DHT22;8078;47.822;9.402;2023-06-05T05:58:47;14.40;99.90
15959;DHT22;8078;47.822;9.402;2023-06-05T06:01:13;14.70;99.90
15959;DHT22;8078;47.822;9.402;2023-06-05T06:03:39;14.90;99.90
15959;DHT22;8078;47.822;9.402;2023-06-05T06:06:05;15.00;99.90
15959;DHT22;8078;47.822;9.402;2023-06-05T06:08:36;15.00;99.90
15959;DHT22;8078;47.822;9.402;2023-06-05T06:11:02;15.20;99.90
15959;DHT22;8078;47.822;9.402;2023-06-05T06:13:32;15.30;99.90
15959;DHT22;8078;47.822;9.402;2023-06-05T06:15:59;15.00;99.90
15959;DHT22;8078;47.822;9.402;2023-06-05T06:18:24;15.10;99.90
15959;DHT22;8078;47.822;9.402;2023-06-05T06:20:51;15.20;99.90
15959;DHT22;8078;47.822;9.402;2023-06-05T06:23:16;15.40;99.90
15959;DHT22;8078;47.822;9.402;2023-06-05T06:25:42;15.60;99.90
15959;DHT22;8078;47.822;9.402;2023-06-05T06:28:07;15.80;99.90
15959;DHT22;8078;47.822;9.402;2023-06-05T06:30:33;16.00;99.90
15959;DHT22;8078;47.822;9.402;2023-06-05T06:32:59;16.10;99.90
15959;DHT22;8078;47.822;9.402;2023-06-05T06:35:27;16.30;99.90
15959;DHT22;8078;47.822;9.402;2023-06-05T06:37:55;16.50;99.90
15959;DHT22;8078;47.822;9.402;2023-06-05T06:40:21;16.60;99.90
15959;DHT22;8078;47.822;9.402;2023-06-05T06:42:48;16.70;99.90
15959;DHT22;8078;47.822;9.402;2023-06-05T06:45:14;16.70;99.90
15959;DHT22;8078;47.822;9.402;2023-06-05T06:47:40;17.00;99.90
15959;DHT22;8078;47.822;9.402;2023-06-05T06:50:06;17.00;99.90
15959;DHT22;8078;47.822;9.402;2023-06-05T06:52:32;17.00;99.90
15959;DHT22;8078;47.822;9.402;2023-06-05T06:54:58;17.20;99.90
15959;DHT22;8078;47.822;9.402;2023-06-05T06:57:23;17.30;99.90
15959;DHT22;8078;47.822;9.402;2023-06-05T06:59:49;17.50;99.90
15959;DHT22;8078;47.822;9.402;2023-06-05T07:02:15;17.50;99.90
15959;DHT22;8078;47.822;9.402;2023-06-05T07:04:41;17.50;99.90
15959;DHT22;8078;47.822;9.402;2023-06-05T07:07:13;17.60;99.90
15959;DHT22;8078;47.822;9.402;2023-06-05T07:09:40;17.70;99.90
15959;DHT22;8078;47.822;9.402;2023-06-05T07:12:08;17.80;99.90
15959;DHT22;8078;47.822;9.402;2023-06-05T07:14:34;17.50;99.90
15959;DHT22;8078;47.822;9.402;2023-06-05T07:17:00;17.60;99.90
15959;DHT22;8078;47.822;9.402;2023-06-05T07:19:27;17.90;99.90
15959;DHT22;8078;47.822;9.402;2023-06-05T07:21:54;18.10;99.90
15959;DHT22;8078;47.822;9.402;2023-06-05T07:24:20;18.20;99.90
15959;DHT22;8078;47.822;9.402;2023-06-05T07:26:46;18.60;99.90
15959;DHT22;8078;47.822;9.402;2023-06-05T07:29:12;18.70;99.90
15959;DHT22;8078;47.822;9.402;2023-06-05T07:31:37;18.40;99.90
15959;DHT22;8078;47.822;9.402;2023-06-05T07:34:04;18.20;99.90
15959;DHT22;8078;47.822;9.402;2023-06-05T07:36:30;18.20;99.90
15959;DHT22;8078;47.822;9.402;2023-06-05T07:38:56;18.30;99.90
15959;DHT22;8078;47.822;9.402;2023-06-05T07:41:21;18.60;99.90
15959;DHT22;8078;47.822;9.402;2023-06-05T07:43:47;18.70;99.90
15959;DHT22;8078;47.822;9.402;2023-06-05T07:46:12;18.70;99.90
15959;DHT22;8078;47.822;9.402;2023-06-05T07:51:06;18.90;99.90
15959;DHT22;8078;47.822;9.402;2023-06-05T07:53:33;18.80;99.90
15959;DHT22;8078;47.822;9.402;2023-06-05T07:55:59;19.00;99.90
15959;DHT22;8078;47.822;9.402;2023-06-05T07:58:25;19.00;99.90
15959;DHT22;8078;47.822;9.402;2023-06-05T08:00:53;19.20;99.90
15959;DHT22;8078;47.822;9.402;2023-06-05T08:03:18;19.30;99.90
15959;DHT22;8078;47.822;9.402;2023-06-05T08:05:49;19.40;99.90
15959;DHT22;8078;47.822;9.402;2023-06-05T08:08:15;19.60;99.90
15959;DHT22;8078;47.822;9.402;2023-06-05T08:10:41;19.90;99.90
15959;DHT22;8078;47.822;9.402;2023-06-05T08:13:10;20.20;99.90
15959;DHT22;8078;47.822;9.402;2023-06-05T08:15:36;20.20;99.90
15959;DHT22;8078;47.822;9.402;2023-06-05T08:18:02;20.30;99.90
15959;DHT22;8078;47.822;9.402;2023-06-05T08:20:28;20.30;99.90
15959;DHT22;8078;47.822;9.402;2023-06-05T08:22:55;20.70;99.90
15959;DHT22;8078;47.822;9.402;2023-06-05T08:25:25;20.60;99.90
15959;DHT22;8078;47.822;9.402;2023-06-05T08:27:52;20.60;99.90
15959;DHT22;8078;47.822;9.402;2023-06-05T08:30:18;20.20;99.90
15959;DHT22;8078;47.822;9.402;2023-06-05T08:32:43;20.40;99.90
15959;DHT22;8078;47.822;9.402;2023-06-05T08:35:10;20.60;99.90
15959;DHT22;8078;47.822;9.402;2023-06-05T08:37:38;20.10;99.90
15959;DHT22;8078;47.822;9.402;2023-06-05T08:40:05;20.10;99.90
15959;DHT22;8078;47.822;9.402;2023-06-05T08:42:36;20.40;99.90
15959;DHT22;8078;47.822;9.402;2023-06-05T08:45:04;20.80;99.90
15959;DHT22;8078;47.822;9.402;2023-06-05T08:47:30;21.20;99.90
15959;DHT22;8078;47.822;9.402;2023-06-05T08:49:56;21.10;99.90
15959;DHT22;8078;47.822;9.402;2023-06-05T08:52:23;21.20;99.90
15959;DHT22;8078;47.822;9.402;2023-06-05T08:54:49;21.10;99.90
15959;DHT22;8078;47.822;9.402;2023-06-05T08:57:15;21.20;99.90
15959;DHT22;8078;47.822;9.402;2023-06-05T08:59:42;21.10;99.90
15959;DHT22;8078;47.822;9.402;2023-06-05T09:02:09;21.00;99.90
15959;DHT22;8078;47.822;9.402;2023-06-05T09:04:35;21.10;99.90
15959;DHT22;8078;47.822;9.402;2023-06-05T09:07:01;21.10;99.90
15959;DHT22;8078;47.822;9.402;2023-06-05T09:09:26;21.50;99.90
15959;DHT22;8078;47.822;9.402;2023-06-05T09:12:05;21.40;99.90
15959;DHT22;8078;47.822;9.402;2023-06-05T09:14:32;21.10;99.90
15959;DHT22;8078;47.822;9.402;2023-06-05T09:16:59;21.30;99.90
15959;DHT22;8078;47.822;9.402;2023-06-05T09:19:38;21.40;99.90
15959;DHT22;8078;47.822;9.402;2023-06-05T09:22:06;21.00;99.90
15959;DHT22;8078;47.822;9.402;2023-06-05T09:24:37;21.10;99.90
15959;DHT22;8078;47.822;9.402;2023-06-05T09:27:09;21.10;99.90
15959;DHT22;8078;47.822;9.402;2023-06-05T09:29:39;21.20;99.90
15959;DHT22;8078;47.822;9.402;2023-06-05T09:32:15;21.40;99.90
15959;DHT22;8078;47.822;9.402;2023-06-05T09:34:41;21.60;99.90
15959;DHT22;8078;47.822;9.402;2023-06-05T09:37:11;21.90;99.90
15959;DHT22;8078;47.822;9.402;2023-06-05T09:39:38;22.00;99.90
15959;DHT22;8078;47.822;9.402;2023-06-05T09:42:05;22.60;99.90
15959;DHT22;8078;47.822;9.402;2023-06-05T09:44:32;22.40;99.90
15959;DHT22;8078;47.822;9.402;2023-06-05T09:52:09;22.80;99.90
15959;DHT22;8078;47.822;9.402;2023-06-05T09:54:37;23.30;99.90
15959;DHT22;8078;47.822;9.402;2023-06-05T09:57:04;23.00;99.90
15959;DHT22;8078;47.822;9.402;2023-06-05T09:59:32;23.00;99.90
15959;DHT22;8078;47.822;9.402;2023-06-05T10:02:03;22.90;99.90
15959;DHT22;8078;47.822;9.402;2023-06-05T10:04:38;23.40;99.90
15959;DHT22;8078;47.822;9.402;2023-06-05T10:07:07;23.80;99.90
15959;DHT22;8078;47.822;9.402;2023-06-05T10:09:34;24.70;99.90
15959;DHT22;8078;47.822;9.402;2023-06-05T10:12:02;24.70;99.90
15959;DHT22;8078;47.822;9.402;2023-06-05T10:14:28;24.20;99.90
15959;DHT22;8078;47.822;9.402;2023-06-05T10:16:54;24.30;99.90
15959;DHT22;8078;47.822;9.402;2023-06-05T10:19:21;24.70;99.90
15959;DHT22;8078;47.822;9.402;2023-06-05T10:21:47;23.70;99.90
15959;DHT22;8078;47.822;9.402;2023-06-05T10:24:26;22.70;99.90
15959;DHT22;8078;47.822;9.402;2023-06-05T10:40:20;23.60;99.90
15959;DHT22;8078;47.822;9.402;2023-06-05T10:42:47;22.70;99.90
15959;DHT22;8078;47.822;9.402;2023-06-05T10:45:12;21.70;99.90
15959;DHT22;8078;47.822;9.402;2023-06-05T10:52:42;22.70;99.90
15959;DHT22;8078;47.822;9.402;2023-06-05T10:55:08;22.00;99.90
15959;DHT22;8078;47.822;9.402;2023-06-05T11:00:29;22.30;99.90
15959;DHT22;8078;47.822;9.402;2023-06-05T11:02:55;22.80;99.90
15959;DHT22;8078;47.822;9.402;2023-06-05T11:05:20;23.10;99.90
15959;DHT22;8078;47.822;9.402;2023-06-05T11:07:46;24.10;99.90
15959;DHT22;8078;47.822;9.402;2023-06-05T11:10:17;24.80;99.90
15959;DHT22;8078;47.822;9.402;2023-06-05T11:21:14;25.20;99.90
15959;DHT22;8078;47.822;9.402;2023-06-05T11:23:40;25.50;99.90
15959;DHT22;8078;47.822;9.402;2023-06-05T11:26:39;25.20;99.90
15959;DHT22;8078;47.822;9.402;2023-06-05T11:29:11;24.80;99.90
15959;DHT22;8078;47.822;9.402;2023-06-05T11:31:37;24.20;99.90
15959;DHT22;8078;47.822;9.402;2023-06-05T11:34:11;23.50;99.90
15959;DHT22;8078;47.822;9.402;2023-06-05T11:36:37;22.90;99.90
15959;DHT22;8078;47.822;9.402;2023-06-05T11:39:03;22.40;99.90
15959;DHT22;8078;47.822;9.402;2023-06-05T11:41:29;22.60;99.90
15959;DHT22;8078;47.822;9.402;2023-06-05T11:43:55;23.70;99.90
15959;DHT22;8078;47.822;9.402;2023-06-05T11:46:36;24.40;99.90
15959;DHT22;8078;47.822;9.402;2023-06-05T11:49:02;24.60;99.90
15959;DHT22;8078;47.822;9.402;2023-06-05T11:51:35;24.80;99.90
15959;DHT22;8078;47.822;9.402;2023-06-05T11:54:01;25.20;99.90
15959;DHT22;8078;47.822;9.402;2023-06-05T11:56:27;25.50;99.90
15959;DHT22;8078;47.822;9.402;2023-06-05T11:58:54;26.00;99.90
15959;DHT22;8078;47.822;9.402;2023-06-05T12:01:20;26.30;99.90
15959;DHT22;8078;47.822;9.402;2023-06-05T12:06:28;26.60;99.90
15959;DHT22;8078;47.822;9.402;2023-06-05T12:09:09;26.30;99.90
15959;DHT22;8078;47.822;9.402;2023-06-05T12:11:36;26.10;99.90
15959;DHT22;8078;47.822;9.402;2023-06-05T12:14:03;24.60;99.90
15959;DHT22;8078;47.822;9.402;2023-06-05T12:16:39;23.90;99.90
15959;DHT22;8078;47.822;9.402;2023-06-05T12:19:13;23.90;99.90
15959;DHT22;8078;47.822;9.402;2023-06-05T12:21:39;24.40;99.90
15959;DHT22;8078;47.822;9.402;2023-06-05T12:24:06;24.90;99.90
15959;DHT22;8078;47.822;9.402;2023-06-05T12:27:00;25.20;99.90
15959;DHT22;8078;47.822;9.402;2023-06-05T12:29:34;25.70;99.90
15959;DHT22;8078;47.822;9.402;2023-06-05T12:32:01;25.70;99.90
15959;DHT22;8078;47.822;9.402;2023-06-05T12:34:44;25.70;99.90
15959;DHT22;8078;47.822;9.402;2023-06-05T12:37:29;25.70;99.90
15959;DHT22;8078;47.822;9.402;2023-06-05T12:40:01;26.00;99.90
15959;DHT22;8078;47.822;9.402;2023-06-05T12:42:35;25.30;99.90
15959;DHT22;8078;47.822;9.402;2023-06-05T12:45:01;24.40;99.90
15959;DHT22;8078;47.822;9.402;2023-06-05T12:47:27;23.90;99.90
15959;DHT22;8078;47.822;9.402;2023-06-05T12:49:52;23.70;99.90
15959;DHT22;8078;47.822;9.402;2023-06-05T12:52:18;23.90;99.90
15959;DHT22;8078;47.822;9.402;2023-06-05T12:54:44;23.80;99.90
15959;DHT22;8078;47.822;9.402;2023-06-05T12:57:10;24.50;99.90
15959;DHT22;8078;47.822;9.402;2023-06-05T12:59:35;25.20;99.90
15959;DHT22;8078;47.822;9.402;2023-06-05T13:02:01;25.90;99.90
15959;DHT22;8078;47.822;9.402;2023-06-05T13:04:29;26.10;99.90
15959;DHT22;8078;47.822;9.402;2023-06-05T13:06:56;26.00;99.90
15959;DHT22;8078;47.822;9.402;2023-06-05T13:09:22;26.30;99.90
15959;DHT22;8078;47.822;9.402;2023-06-05T13:11:48;26.90;99.90
15959;DHT22;8078;47.822;9.402;2023-06-05T13:14:13;26.50;99.90
15959;DHT22;8078;47.822;9.402;2023-06-05T13:16:39;26.60;99.90
15959;DHT22;8078;47.822;9.402;2023-06-05T13:19:04;26.80;99.90
15959;DHT22;8078;47.822;9.402;2023-06-05T13:21:30;26.90;99.90
15959;DHT22;8078;47.822;9.402;2023-06-05T13:23:56;28.00;99.90
15959;DHT22;8078;47.822;9.402;2023-06-05T13:26:21;28.00;99.90
15959;DHT22;8078;47.822;9.402;2023-06-05T13:28:47;28.10;99.90
15959;DHT22;8078;47.822;9.402;2023-06-05T13:31:12;28.70;99.90
15959;DHT22;8078;47.822;9.402;2023-06-05T13:33:39;29.10;99.90
15959;DHT22;8078;47.822;9.402;2023-06-05T13:36:06;29.60;99.90
15959;DHT22;8078;47.822;9.402;2023-06-05T13:38:32;29.30;99.90
15959;DHT22;8078;47.822;9.402;2023-06-05T13:40:57;28.00;99.90
15959;DHT22;8078;47.822;9.402;2023-06-05T13:43:23;26.00;99.90
15959;DHT22;8078;47.822;9.402;2023-06-05T13:45:48;25.20;99.90
15959;DHT22;8078;47.822;9.402;2023-06-05T13:48:14;25.20;99.90
15959;DHT22;8078;47.822;9.402;2023-06-05T13:50:40;25.00;99.90
15959;DHT22;8078;47.822;9.402;2023-06-05T13:53:06;25.00;99.90
15959;DHT22;8078;47.822;9.402;2023-06-05T13:55:31;25.70;99.90
15959;DHT22;8078;47.822;9.402;2023-06-05T13:57:57;26.70;99.90
15959;DHT22;8078;47.822;9.402;2023-06-05T14:00:28;27.50;99.90
15959;DHT22;8078;47.822;9.402;2023-06-05T14:02:53;26.90;99.90
15959;DHT22;8078;47.822;9.402;2023-06-05T14:05:19;27.10;99.90
15959;DHT22;8078;47.822;9.402;2023-06-05T14:07:45;27.10;99.90
15959;DHT22;8078;47.822;9.402;2023-06-05T14:10:10;27.30;99.90
15959;DHT22;8078;47.822;9.402;2023-06-05T14:12:36;27.50;99.90
15959;DHT22;8078;47.822;9.402;2023-06-05T14:15:01;28.00;99.90
15959;DHT22;8078;47.822;9.402;2023-06-05T14:17:27;27.30;99.90
15959;DHT22;8078;47.822;9.402;2023-06-05T14:19:53;26.50;99.90
15959;DHT22;8078;47.822;9.402;2023-06-05T14:22:19;25.50;99.90
15959;DHT22;8078;47.822;9.402;2023-06-05T14:24:45;25.60;99.90
15959;DHT22;8078;47.822;9.402;2023-06-05T14:27:11;25.70;99.90
15959;DHT22;8078;47.822;9.402;2023-06-05T14:29:38;25.80;99.90
15959;DHT22;8078;47.822;9.402;2023-06-05T14:32:04;26.60;99.90
15959;DHT22;8078;47.822;9.402;2023-06-05T14:34:30;27.40;99.90
15959;DHT22;8078;47.822;9.402;2023-06-05T14:36:56;28.00;99.90
15959;DHT22;8078;47.822;9.402;2023-06-05T14:39:22;28.30;99.90
15959;DHT22;8078;47.822;9.402;2023-06-05T14:41:47;28.30;99.90
15959;DHT22;8078;47.822;9.402;2023-06-05T14:44:13;28.90;99.90
15959;DHT22;8078;47.822;9.402;2023-06-05T14:46:39;28.00;99.90
15959;DHT22;8078;47.822;9.402;2023-06-05T14:49:04;28.40;99.90
15959;DHT22;8078;47.822;9.402;2023-06-05T14:51:30;28.50;99.90
15959;DHT22;8078;47.822;9.402;2023-06-05T14:53:56;28.40;99.90
15959;DHT22;8078;47.822;9.402;2023-06-05T14:56:21;28.70;99.90
15959;DHT22;8078;47.822;9.402;2023-06-05T14:58:47;28.20;99.90
15959;DHT22;8078;47.822;9.402;2023-06-05T15:01:13;27.90;99.90
15959;DHT22;8078;47.822;9.402;2023-06-05T15:03:39;27.90;99.90
15959;DHT22;8078;47.822;9.402;2023-06-05T15:06:05;27.70;99.90
15959;DHT22;8078;47.822;9.402;2023-06-05T15:08:31;28.10;99.90
15959;DHT22;8078;47.822;9.402;2023-06-05T15:10:56;28.40;99.90
15959;DHT22;8078;47.822;9.402;2023-06-05T15:13:22;28.10;99.90
15959;DHT22;8078;47.822;9.402;2023-06-05T15:15:48;28.10;99.90
15959;DHT22;8078;47.822;9.402;2023-06-05T15:18:14;27.90;99.90
15959;DHT22;8078;47.822;9.402;2023-06-05T15:20:39;27.90;99.90
15959;DHT22;8078;47.822;9.402;2023-06-05T15:23:05;27.20;99.90
15959;DHT22;8078;47.822;9.402;2023-06-05T15:25:30;26.40;99.90
15959;DHT22;8078;47.822;9.402;2023-06-05T15:27:59;26.50;99.90
15959;DHT22;8078;47.822;9.402;2023-06-05T15:30:25;26.20;99.90
15959;DHT22;8078;47.822;9.402;2023-06-05T15:32:50;26.40;99.90
15959;DHT22;8078;47.822;9.402;2023-06-05T15:35:16;26.20;99.90
15959;DHT22;8078;47.822;9.402;2023-06-05T15:37:41;26.50;99.90
15959;DHT22;8078;47.822;9.402;2023-06-05T15:40:07;26.60;99.90
15959;DHT22;8078;47.822;9.402;2023-06-05T15:42:35;27.00;99.90
15959;DHT22;8078;47.822;9.402;2023-06-05T15:45:13;27.20;99.90
15959;DHT22;8078;47.822;9.402;2023-06-05T15:47:41;26.80;99.90
15959;DHT22;8078;47.822;9.402;2023-06-05T15:50:07;26.90;99.90
15959;DHT22;8078;47.822;9.402;2023-06-05T15:52:35;27.40;99.90
15959;DHT22;8078;47.822;9.402;2023-06-05T15:55:00;27.80;99.90
15959;DHT22;8078;47.822;9.402;2023-06-05T15:57:26;27.80;99.90
15959;DHT22;8078;47.822;9.402;2023-06-05T15:59:52;28.00;99.90
15959;DHT22;8078;47.822;9.402;2023-06-05T16:02:18;28.40;99.90
15959;DHT22;8078;47.822;9.402;2023-06-05T16:04:44;28.80;99.90
15959;DHT22;8078;47.822;9.402;2023-06-05T16:07:10;29.20;99.90
15959;DHT22;8078;47.822;9.402;2023-06-05T16:09:36;29.50;99.90
15959;DHT22;8078;47.822;9.402;2023-06-05T16:12:02;29.60;99.90
15959;DHT22;8078;47.822;9.402;2023-06-05T16:14:28;29.50;99.90
15959;DHT22;8078;47.822;9.402;2023-06-05T16:16:54;29.40;99.90
15959;DHT22;8078;47.822;9.402;2023-06-05T16:19:23;29.80;99.90
15959;DHT22;8078;47.822;9.402;2023-06-05T16:21:49;29.70;99.90
15959;DHT22;8078;47.822;9.402;2023-06-05T16:24:14;29.90;99.90
15959;DHT22;8078;47.822;9.402;2023-06-05T16:26:40;29.60;99.90